Decoded Metar for EIWF (WATERFORD in IRELAND) (IATA:WAT) | Meteo·Mobile Aviation Weather
aviador You're here:

EIWF Decoded Metar

WATERFORD in IRELAND
Report Time2018-12-19 15:00:00
UTC Time2018-12-19 15:19:13
Flight Rules vfr VFR
Wind270° at 11 kt
W.Decomp.*RWY 21: 4.8 kt HW 9.9 kt RCW
W.Rank270° ranks 7
Current wind is above 270° avg. (8.3)
Visibility9999 m
Phenomena:N/A
Clouds:Scattered 022 Hf
Scattered 027 Hf
Expected CloudBase > 1,200 ft AGL from Temp-Dew spread
CeilingNone
Temp08°C (ISA -7)
Dew Point05°C (82% RH)
AAT2.9°C
QNH0996 hPa
Density Alt7 ft
Elevation118 ft
Report Wrong Elevation
Raw Report
METAR EIWF 191500Z 27011KT 220V310 9999 SCT022 SCT027 08/05 Q0996
R21/2/////=

Extra information for EIWF:More info

Metar Taf Metar & Taf Last 4 Metars F.Rules Stats Wind Profile Meteogram Temp Stats Airport Information Weather charts Add Link Nearby VenuesMetar ALERT Operation Metar Decoded Social comments